createdAt,value
2019-02-23T00:01:11.629Z,1.96
2019-02-23T00:03:42.039Z,1.97
2019-02-23T00:06:12.492Z,1.95
2019-02-23T00:08:43.110Z,1.90
2019-02-23T00:11:13.405Z,1.91
2019-02-23T00:13:43.670Z,1.84
2019-02-23T00:16:14.444Z,1.83
2019-02-23T00:18:44.806Z,1.82
2019-02-23T00:21:15.062Z,1.84
2019-02-23T00:23:45.552Z,1.78
2019-02-23T00:26:15.892Z,1.80
2019-02-23T00:28:46.137Z,1.77
2019-02-23T00:31:17.309Z,1.80
2019-02-23T00:33:47.497Z,1.71
2019-02-23T00:36:18.312Z,1.74
2019-02-23T00:38:48.911Z,1.71
2019-02-23T00:41:19.261Z,1.70
2019-02-23T00:43:50.205Z,1.71
2019-02-23T00:46:20.897Z,1.70
2019-02-23T00:48:51.770Z,1.71
2019-02-23T00:51:22.216Z,1.70
2019-02-23T00:53:52.519Z,1.73
2019-02-23T00:56:23.668Z,1.72
2019-02-23T00:58:54.196Z,1.73
2019-02-23T01:01:24.768Z,1.76
2019-02-23T01:03:54.989Z,1.83
2019-02-23T01:06:25.515Z,1.80
2019-02-23T01:08:56.088Z,1.80
2019-02-23T01:11:26.455Z,1.85
2019-02-23T01:13:56.830Z,1.92
2019-02-23T01:16:27.353Z,1.96
2019-02-23T01:18:57.737Z,1.98
2019-02-23T01:21:28.539Z,1.94
2019-02-23T01:23:58.994Z,1.99
2019-02-23T01:26:29.537Z,1.91
2019-02-23T01:28:59.800Z,1.86
2019-02-23T01:31:30.127Z,1.82
2019-02-23T01:34:00.616Z,1.81
2019-02-23T01:36:30.897Z,1.84
2019-02-23T01:39:01.373Z,1.86
2019-02-23T01:41:31.855Z,1.86
2019-02-23T01:44:02.285Z,1.88
2019-02-23T01:46:32.962Z,1.90
2019-02-23T01:49:03.263Z,1.92
2019-02-23T01:51:36.579Z,1.87
2019-02-23T01:54:06.900Z,1.85
2019-02-23T01:56:37.139Z,1.85
2019-02-23T01:59:07.641Z,1.85
2019-02-23T02:01:38.610Z,1.82
2019-02-23T02:04:08.816Z,1.80
2019-02-23T02:06:39.287Z,1.79
2019-02-23T02:09:09.887Z,1.83
2019-02-23T02:11:40.215Z,1.85
2019-02-23T02:14:10.814Z,1.81
2019-02-23T02:16:41.479Z,1.85
2019-02-23T02:19:11.826Z,1.84
2019-02-23T02:21:42.534Z,1.85
2019-02-23T02:24:13.037Z,1.83
2019-02-23T02:26:43.438Z,1.79
2019-02-23T02:29:13.687Z,1.76
2019-02-23T02:31:44.177Z,1.77
2019-02-23T02:34:18.463Z,1.67
2019-02-23T02:36:48.793Z,1.68
2019-02-23T02:39:19.078Z,1.60
2019-02-23T02:41:50.118Z,1.61
2019-02-23T02:44:20.378Z,1.66
2019-02-23T02:46:50.661Z,1.65
2019-02-23T02:49:21.283Z,1.65
2019-02-23T02:51:51.546Z,1.63
2019-02-23T02:54:21.841Z,1.59
2019-02-23T02:56:52.507Z,1.61
2019-02-23T02:59:22.825Z,1.66
2019-02-23T03:01:53.327Z,1.66
2019-02-23T03:04:23.576Z,1.64
2019-02-23T03:06:54.075Z,1.55
2019-02-23T03:09:24.348Z,1.58
2019-02-23T03:11:54.631Z,1.62
2019-02-23T03:14:24.979Z,1.61
2019-02-23T03:16:55.545Z,1.60
2019-02-23T03:19:25.858Z,1.60
2019-02-23T03:21:56.050Z,1.66
2019-02-23T03:24:26.276Z,1.63
2019-02-23T03:26:56.791Z,1.67
2019-02-23T03:29:27.028Z,1.63
2019-02-23T03:31:57.434Z,1.61
2019-02-23T03:34:27.698Z,1.59
2019-02-23T03:36:58.315Z,1.59
2019-02-23T03:39:28.653Z,1.54
2019-02-23T03:41:58.921Z,1.52
2019-02-23T03:44:29.371Z,1.53
2019-02-23T03:47:01.301Z,1.55
2019-02-23T03:49:31.536Z,1.53
2019-02-23T03:52:01.809Z,1.49
2019-02-23T03:54:32.087Z,1.44
2019-02-23T03:57:02.728Z,1.37
2019-02-23T03:59:33.088Z,1.36
2019-02-23T04:02:03.350Z,1.36
2019-02-23T04:04:33.569Z,1.32
2019-02-23T04:07:03.842Z,1.38
2019-02-23T04:09:34.109Z,1.36
2019-02-23T04:12:04.337Z,1.40
2019-02-23T04:14:35.040Z,1.39
2019-02-23T04:17:05.249Z,1.38
2019-02-23T04:19:35.671Z,1.35
2019-02-23T04:22:05.969Z,1.28
2019-02-23T04:24:36.415Z,1.27
2019-02-23T04:27:06.989Z,1.26
2019-02-23T04:29:37.617Z,1.29
2019-02-23T04:32:08.164Z,1.32
2019-02-23T04:34:38.383Z,1.30
2019-02-23T04:37:08.713Z,1.23
2019-02-23T04:39:39.036Z,1.26
2019-02-23T04:42:09.277Z,1.23
2019-02-23T04:44:39.497Z,1.26
2019-02-23T04:47:09.724Z,1.29
2019-02-23T04:49:40.004Z,1.26
2019-02-23T04:52:10.985Z,1.18
2019-02-23T04:54:41.222Z,1.12
2019-02-23T04:57:11.454Z,1.09
2019-02-23T04:59:41.945Z,1.05
2019-02-23T05:02:12.345Z,1.04
2019-02-23T05:04:42.650Z,0.98
2019-02-23T05:07:13.400Z,1.01
2019-02-23T05:09:45.038Z,0.98
2019-02-23T05:12:15.302Z,0.97
2019-02-23T05:14:45.739Z,0.92
2019-02-23T05:17:16.391Z,0.89
2019-02-23T05:19:46.592Z,0.91
2019-02-23T05:22:16.832Z,0.93
2019-02-23T05:24:47.957Z,0.97
2019-02-23T05:27:18.363Z,0.99
2019-02-23T05:29:48.642Z,1.06
2019-02-23T05:32:18.909Z,1.08
2019-02-23T05:34:49.266Z,1.03
2019-02-23T05:37:19.503Z,1.06
2019-02-23T05:39:50.010Z,1.04
2019-02-23T05:42:20.366Z,1.04
2019-02-23T05:44:50.522Z,1.06
2019-02-23T05:47:20.787Z,1.10
2019-02-23T05:49:51.414Z,1.03
2019-02-23T05:52:21.681Z,0.97
2019-02-23T05:54:53.368Z,0.96
2019-02-23T05:57:23.587Z,0.96
2019-02-23T05:59:54.220Z,0.90
2019-02-23T06:02:24.605Z,0.91
2019-02-23T06:04:55.302Z,0.92
2019-02-23T06:07:25.675Z,0.84
2019-02-23T06:09:56.001Z,0.78
2019-02-23T06:12:26.837Z,0.80
2019-02-23T06:14:57.156Z,0.81
2019-02-23T06:17:27.469Z,0.81
2019-02-23T06:19:57.711Z,0.81
2019-02-23T06:22:27.970Z,0.83
2019-02-23T06:24:58.414Z,0.86
2019-02-23T06:27:28.739Z,0.87
2019-02-23T06:29:59.023Z,0.85
2019-02-23T06:32:29.290Z,0.80
2019-02-23T06:34:59.718Z,0.67
2019-02-23T06:37:31.427Z,0.67
2019-02-23T06:40:04.854Z,0.66
2019-02-23T06:42:35.589Z,0.62
2019-02-23T06:45:06.335Z,0.54
2019-02-23T06:47:36.599Z,0.54
2019-02-23T06:50:08.340Z,0.67
2019-02-23T06:52:38.596Z,0.67
2019-02-23T06:55:08.876Z,0.66
2019-02-23T06:57:39.741Z,0.71
2019-02-23T07:00:12.519Z,0.75
2019-02-23T07:02:43.365Z,0.73
2019-02-23T07:05:15.580Z,0.80
2019-02-23T07:07:47.237Z,0.84
2019-02-23T07:10:17.971Z,0.95
2019-02-23T07:12:49.038Z,1.02
2019-02-23T07:15:21.283Z,1.02
2019-02-23T07:17:51.504Z,1.08
2019-02-23T07:20:22.288Z,1.12
2019-02-23T07:22:52.774Z,1.14
2019-02-23T07:25:23.249Z,1.22
2019-02-23T07:27:54.284Z,1.30
2019-02-23T07:30:24.546Z,1.30
2019-02-23T07:32:58.361Z,1.36
2019-02-23T07:35:29.525Z,1.33
2019-02-23T07:37:59.811Z,1.38
2019-02-23T07:40:30.799Z,1.41
2019-02-23T07:43:02.192Z,1.45
2019-02-23T07:45:32.705Z,1.40
2019-02-23T07:48:03.186Z,1.48
2019-02-23T07:50:34.043Z,1.55
2019-02-23T07:53:04.543Z,1.56
2019-02-23T07:55:34.772Z,1.55
2019-02-23T07:58:05.056Z,1.63
2019-02-23T08:00:35.291Z,1.65
2019-02-23T08:03:05.601Z,1.66
2019-02-23T08:05:35.836Z,1.69
2019-02-23T08:08:06.050Z,1.74
2019-02-23T08:10:36.374Z,1.78
2019-02-23T08:13:07.242Z,1.84
2019-02-23T08:15:39.137Z,1.72
2019-02-23T08:18:09.763Z,1.82
2019-02-23T08:20:40.661Z,1.95
2019-02-23T08:23:10.955Z,2.06
2019-02-23T08:25:41.627Z,2.11
2019-02-23T08:28:12.079Z,2.17
2019-02-23T08:30:42.797Z,2.30
2019-02-23T08:33:14.946Z,2.42
2019-02-23T08:35:49.138Z,2.60
2019-02-23T08:38:19.536Z,2.64
2019-02-23T08:40:49.965Z,2.63
2019-02-23T08:43:20.847Z,2.65
2019-02-23T08:45:51.480Z,2.64
2019-02-23T08:48:22.582Z,2.79
2019-02-23T08:50:52.855Z,2.98
2019-02-23T08:53:23.169Z,3.13
2019-02-23T08:55:53.402Z,3.41
2019-02-23T08:58:23.667Z,3.59
2019-02-23T09:00:54.700Z,3.76
2019-02-23T09:03:25.407Z,3.95
2019-02-23T09:05:55.913Z,4.21
2019-02-23T09:08:27.002Z,4.46
2019-02-23T09:10:57.305Z,4.45
2019-02-23T09:13:27.614Z,4.41
2019-02-23T09:15:59.387Z,4.44
2019-02-23T09:18:29.648Z,4.39
2019-02-23T09:21:00.137Z,4.37
2019-02-23T09:23:31.230Z,4.34
2019-02-23T09:26:01.887Z,4.34
2019-02-23T09:28:32.152Z,4.53
2019-02-23T09:31:03.588Z,4.67
2019-02-23T09:33:33.858Z,4.54
2019-02-23T09:36:04.072Z,4.74
2019-02-23T09:38:34.306Z,5.00
2019-02-23T09:41:04.536Z,5.08
2019-02-23T09:43:34.772Z,5.25
2019-02-23T09:46:05.148Z,5.15
2019-02-23T09:48:35.461Z,4.91
2019-02-23T09:51:06.075Z,4.80
2019-02-23T09:53:36.497Z,4.77
2019-02-23T09:56:06.783Z,4.87
2019-02-23T09:58:37.407Z,5.00
2019-02-23T10:01:07.698Z,5.12
2019-02-23T10:03:38.024Z,5.20
2019-02-23T10:06:08.917Z,5.43
2019-02-23T10:08:39.593Z,5.66
2019-02-23T10:11:09.814Z,6.19
2019-02-23T10:13:40.390Z,6.75
2019-02-23T10:16:10.688Z,6.95
2019-02-23T10:18:41.452Z,7.17
2019-02-23T10:21:11.988Z,7.30
2019-02-23T10:23:42.329Z,7.29
2019-02-23T10:26:12.583Z,7.28
2019-02-23T10:28:42.866Z,7.09
2019-02-23T10:31:13.236Z,6.89
2019-02-23T10:33:47.633Z,6.69
2019-02-23T10:36:15.909Z,6.42
2019-02-23T10:38:46.215Z,6.42
2019-02-23T10:41:16.575Z,6.42
2019-02-23T10:43:47.676Z,6.25
2019-02-23T10:46:18.043Z,6.30
2019-02-23T10:48:48.470Z,6.39
2019-02-23T10:51:18.779Z,6.32
2019-02-23T10:53:49.271Z,6.37
2019-02-23T10:56:19.776Z,6.04
2019-02-23T10:58:50.452Z,5.99
2019-02-23T11:01:20.726Z,5.86
2019-02-23T11:03:51.031Z,5.96
2019-02-23T11:06:22.347Z,5.97
2019-02-23T11:08:52.976Z,6.05
2019-02-23T11:11:23.383Z,6.11
2019-02-23T11:13:53.658Z,6.14
2019-02-23T11:16:23.951Z,6.16
2019-02-23T11:18:54.635Z,6.19
2019-02-23T11:21:25.050Z,6.23
2019-02-23T11:23:55.395Z,6.40
2019-02-23T11:26:26.033Z,6.30
2019-02-23T11:28:56.352Z,6.23
2019-02-23T11:31:26.958Z,6.23
2019-02-23T11:33:57.408Z,6.39
2019-02-23T11:36:27.697Z,6.52
2019-02-23T11:38:58.267Z,6.64
2019-02-23T11:41:28.498Z,6.79
2019-02-23T11:43:58.888Z,6.89
2019-02-23T11:46:29.353Z,6.82
2019-02-23T11:48:59.691Z,7.00
2019-02-23T11:51:30.994Z,7.21
2019-02-23T11:54:02.637Z,7.46
2019-02-23T11:56:32.876Z,7.63
2019-02-23T11:59:03.446Z,8.05
2019-02-23T12:01:34.594Z,7.93
2019-02-23T12:04:04.839Z,7.74
2019-02-23T12:06:35.191Z,7.57
2019-02-23T12:09:05.748Z,7.36
2019-02-23T12:11:36.258Z,7.26
2019-02-23T12:14:06.527Z,7.12
2019-02-23T12:16:37.962Z,7.15
2019-02-23T12:19:08.219Z,7.17
2019-02-23T12:21:38.780Z,7.28
2019-02-23T12:24:09.143Z,7.37
2019-02-23T12:26:39.979Z,7.43
2019-02-23T12:29:10.268Z,7.60
2019-02-23T12:31:40.873Z,7.78
2019-02-23T12:34:11.201Z,7.78
2019-02-23T12:36:44.527Z,7.69
2019-02-23T12:39:15.033Z,7.72
2019-02-23T12:41:45.679Z,7.68
2019-02-23T12:44:16.604Z,7.69
2019-02-23T12:46:47.359Z,7.75
2019-02-23T12:49:18.007Z,7.66
2019-02-23T12:51:48.644Z,7.66
2019-02-23T12:54:19.519Z,7.67
2019-02-23T12:56:50.112Z,7.68
2019-02-23T12:59:20.465Z,7.76
2019-02-23T13:01:51.783Z,7.85
2019-02-23T13:04:22.092Z,7.90
2019-02-23T13:06:53.103Z,7.93
2019-02-23T13:09:29.697Z,7.90
2019-02-23T13:12:30.344Z,7.90
2019-02-23T13:15:29.547Z,7.77
2019-02-23T13:18:46.679Z,7.88
2019-02-23T13:21:24.489Z,7.95
2019-02-23T13:24:12.162Z,8.08
2019-02-23T13:27:21.034Z,8.18
2019-02-23T13:30:30.861Z,8.24
2019-02-23T13:33:33.146Z,8.18
2019-02-23T13:37:01.822Z,8.10
2019-02-23T13:40:11.736Z,8.07
2019-02-23T13:43:19.306Z,8.10
2019-02-23T13:46:13.885Z,8.10
2019-02-23T13:49:13.781Z,8.11
2019-02-23T13:52:25.686Z,7.98
2019-02-23T13:55:35.753Z,7.95
2019-02-23T13:58:12.614Z,7.79
2019-02-23T14:00:58.833Z,7.64
2019-02-23T14:03:49.628Z,7.65
2019-02-23T14:06:40.316Z,7.65
2019-02-23T14:09:50.602Z,7.55
2019-02-23T14:12:38.244Z,7.62
2019-02-23T14:15:22.905Z,7.57
2019-02-23T14:18:07.863Z,7.56
2019-02-23T14:21:15.028Z,7.57
2019-02-23T14:24:29.321Z,7.58
2019-02-23T14:27:18.078Z,7.60
2019-02-23T14:30:13.745Z,7.53
2019-02-23T14:33:40.846Z,7.61
2019-02-23T14:36:51.186Z,7.67
2019-02-23T14:39:56.949Z,7.77
2019-02-23T14:43:26.596Z,7.96
2019-02-23T14:46:15.745Z,8.09
2019-02-23T14:49:57.562Z,8.03
2019-02-23T14:53:17.211Z,7.95
2019-02-23T14:56:31.475Z,7.84
2019-02-23T14:59:44.810Z,7.76
2019-02-23T15:03:05.202Z,7.67
2019-02-23T15:06:07.601Z,7.47
2019-02-23T15:09:33.948Z,7.53
2019-02-23T15:12:15.408Z,7.70
2019-02-23T15:15:09.373Z,7.77
2019-02-23T15:18:17.006Z,7.74
2019-02-23T15:21:30.334Z,7.73
2019-02-23T15:24:49.103Z,7.75
2019-02-23T15:27:38.765Z,7.75
2019-02-23T15:30:33.077Z,7.77
2019-02-23T15:33:56.603Z,7.79
2019-02-23T15:37:00.543Z,7.76
2019-02-23T15:40:13.962Z,7.71
2019-02-23T15:43:28.924Z,7.66
2019-02-23T15:46:30.396Z,7.60
2019-02-23T15:49:33.119Z,7.60
2019-02-23T15:52:07.556Z,7.63
2019-02-23T15:54:39.220Z,7.53
2019-02-23T15:57:09.589Z,7.49
2019-02-23T15:59:40.071Z,7.44
2019-02-23T16:02:10.683Z,7.36
2019-02-23T16:04:40.908Z,7.27
2019-02-23T16:07:11.235Z,7.23
2019-02-23T16:09:41.670Z,7.19
2019-02-23T16:12:11.905Z,7.14
2019-02-23T16:14:42.388Z,7.12
2019-02-23T16:17:12.653Z,7.14
2019-02-23T16:19:43.375Z,7.08
2019-02-23T16:22:14.122Z,7.02
2019-02-23T16:24:45.393Z,6.94
2019-02-23T16:27:15.640Z,6.90
2019-02-23T16:29:46.056Z,6.91
2019-02-23T16:32:16.478Z,6.89
2019-02-23T16:34:46.752Z,6.86
2019-02-23T16:37:17.325Z,6.90
2019-02-23T16:39:48.528Z,6.83
2019-02-23T16:42:21.435Z,6.83
2019-02-23T16:44:51.847Z,6.83
2019-02-23T16:47:23.830Z,6.74
2019-02-23T16:49:56.082Z,6.75
2019-02-23T16:52:27.046Z,6.74
2019-02-23T16:54:59.564Z,6.74
2019-02-23T16:57:30.417Z,6.74
2019-02-23T17:00:01.117Z,6.73
2019-02-23T17:02:31.702Z,6.69
2019-02-23T17:05:09.245Z,6.77
2019-02-23T17:07:39.593Z,6.72
2019-02-23T17:10:13.146Z,6.68
2019-02-23T17:12:46.214Z,6.67
2019-02-23T17:15:20.826Z,6.66
2019-02-23T17:17:53.344Z,6.69
2019-02-23T17:20:25.680Z,6.70
2019-02-23T17:22:56.570Z,6.62
2019-02-23T17:25:27.386Z,6.61
2019-02-23T17:28:03.554Z,6.56
2019-02-23T17:30:35.158Z,6.54
2019-02-23T17:33:05.947Z,6.53
2019-02-23T17:35:40.885Z,6.47
2019-02-23T17:38:16.892Z,6.43
2019-02-23T17:40:46.555Z,6.41
2019-02-23T17:43:19.804Z,6.42
2019-02-23T17:45:51.577Z,6.40
2019-02-23T17:48:25.445Z,6.33
2019-02-23T17:51:02.241Z,6.32
2019-02-23T17:53:40.473Z,6.35
2019-02-23T17:56:16.799Z,6.32
2019-02-23T17:58:56.803Z,6.28
2019-02-23T18:01:26.811Z,6.28
2019-02-23T18:03:57.700Z,6.22
2019-02-23T18:06:31.050Z,6.18
2019-02-23T18:09:01.518Z,6.14
2019-02-23T18:11:31.902Z,6.14
2019-02-23T18:14:02.731Z,6.16
2019-02-23T18:16:37.436Z,6.09
2019-02-23T18:19:10.741Z,6.09
2019-02-23T18:21:41.766Z,6.10
2019-02-23T18:24:13.701Z,6.07
2019-02-23T18:26:44.957Z,6.02
2019-02-23T18:29:15.787Z,5.99
2019-02-23T18:31:46.416Z,6.06
2019-02-23T18:34:19.556Z,6.04
2019-02-23T18:36:53.631Z,6.00
2019-02-23T18:39:26.468Z,5.96
2019-02-23T18:41:56.754Z,5.91
2019-02-23T18:44:31.279Z,5.91
2019-02-23T18:47:01.655Z,5.87
2019-02-23T18:49:32.725Z,5.84
2019-02-23T18:52:03.596Z,5.77
2019-02-23T18:54:34.666Z,5.73
2019-02-23T18:57:05.323Z,5.68
2019-02-23T18:59:36.728Z,5.69
2019-02-23T19:02:07.162Z,5.67
2019-02-23T19:04:38.530Z,5.61
2019-02-23T19:07:09.264Z,5.58
2019-02-23T19:09:40.858Z,5.56
2019-02-23T19:12:11.448Z,5.63
2019-02-23T19:14:44.348Z,5.64
2019-02-23T19:17:16.840Z,5.58
2019-02-23T19:19:47.100Z,5.55
2019-02-23T19:22:18.254Z,5.52
2019-02-23T19:24:49.682Z,5.49
2019-02-23T19:27:20.301Z,5.46
2019-02-23T19:29:50.828Z,5.45
2019-02-23T19:32:25.059Z,5.44
2019-02-23T19:34:56.049Z,5.41
2019-02-23T19:37:26.378Z,5.43
2019-02-23T19:39:56.757Z,5.39
2019-02-23T19:42:27.223Z,5.44
2019-02-23T19:44:58.020Z,5.44
2019-02-23T19:47:31.334Z,5.40
2019-02-23T19:50:06.305Z,5.41
2019-02-23T19:52:36.596Z,5.40
2019-02-23T19:55:08.942Z,5.32
2019-02-23T19:57:41.266Z,5.29
2019-02-23T20:00:12.375Z,5.26
2019-02-23T20:02:42.704Z,5.25
2019-02-23T20:05:13.021Z,5.25
2019-02-23T20:07:43.346Z,5.23
2019-02-23T20:10:14.058Z,5.19
2019-02-23T20:12:44.472Z,5.17
2019-02-23T20:15:15.053Z,5.05
2019-02-23T20:17:45.819Z,5.04
2019-02-23T20:20:16.175Z,5.07
2019-02-23T20:22:46.562Z,5.08
2019-02-23T20:25:17.839Z,5.06
2019-02-23T20:27:48.904Z,5.00
2019-02-23T20:30:19.537Z,4.97
2019-02-23T20:32:50.780Z,4.94
2019-02-23T20:35:21.687Z,4.95
2019-02-23T20:37:52.038Z,4.94
2019-02-23T20:40:22.358Z,4.95
2019-02-23T20:42:52.618Z,4.93
2019-02-23T20:45:24.430Z,4.90
2019-02-23T20:47:55.150Z,4.90
2019-02-23T20:50:25.591Z,4.89
2019-02-23T20:52:56.045Z,4.92
2019-02-23T20:55:27.874Z,4.88
2019-02-23T20:57:58.221Z,4.85
2019-02-23T21:00:28.956Z,4.81
2019-02-23T21:02:59.299Z,4.79
2019-02-23T21:05:32.585Z,4.78
2019-02-23T21:08:03.189Z,4.78
2019-02-23T21:10:33.620Z,4.71
2019-02-23T21:13:03.960Z,4.69
2019-02-23T21:15:34.721Z,4.64
2019-02-23T21:18:05.535Z,4.65
2019-02-23T21:20:35.872Z,4.64
2019-02-23T21:23:06.646Z,4.65
2019-02-23T21:25:37.484Z,4.67
2019-02-23T21:28:08.448Z,4.63
2019-02-23T21:30:38.893Z,4.68
2019-02-23T21:33:09.504Z,4.63
2019-02-23T21:35:39.961Z,4.63
2019-02-23T21:38:13.410Z,4.62
2019-02-23T21:40:43.878Z,4.60
2019-02-23T21:43:14.093Z,4.59
2019-02-23T21:45:45.410Z,4.57
2019-02-23T21:48:15.754Z,4.61
2019-02-23T21:50:46.195Z,4.61
2019-02-23T21:53:17.524Z,4.60
2019-02-23T21:55:48.029Z,4.59
2019-02-23T21:58:18.775Z,4.63
2019-02-23T22:00:49.009Z,4.62
2019-02-23T22:03:20.846Z,4.64
2019-02-23T22:05:51.278Z,4.59
2019-02-23T22:08:21.807Z,4.56
2019-02-23T22:10:52.188Z,4.60
2019-02-23T22:13:23.159Z,4.58
2019-02-23T22:15:53.586Z,4.58
2019-02-23T22:18:25.739Z,4.60
2019-02-23T22:20:56.200Z,4.61
2019-02-23T22:23:29.536Z,4.61
2019-02-23T22:26:00.343Z,4.61
2019-02-23T22:28:31.046Z,4.62
2019-02-23T22:31:01.371Z,4.62
2019-02-23T22:33:32.159Z,4.56
2019-02-23T22:36:02.607Z,4.57
2019-02-23T22:38:33.278Z,4.63
2019-02-23T22:41:03.668Z,4.61
2019-02-23T22:43:34.138Z,4.63
2019-02-23T22:46:04.511Z,4.68
2019-02-23T22:48:38.065Z,4.69
2019-02-23T22:51:09.461Z,4.63
2019-02-23T22:53:40.323Z,4.53
2019-02-23T22:56:10.606Z,4.55
2019-02-23T22:58:44.525Z,4.59
2019-02-23T23:01:15.139Z,4.52
2019-02-23T23:03:45.394Z,4.50
2019-02-23T23:06:15.690Z,4.48
2019-02-23T23:08:46.335Z,4.49
2019-02-23T23:11:16.616Z,4.46
2019-02-23T23:13:47.904Z,4.42
2019-02-23T23:16:18.279Z,4.38
2019-02-23T23:18:49.164Z,4.32
2019-02-23T23:21:19.442Z,4.29
2019-02-23T23:23:52.598Z,4.32
2019-02-23T23:26:22.935Z,4.32
2019-02-23T23:28:55.533Z,4.33
2019-02-23T23:31:25.920Z,4.33
2019-02-23T23:33:56.619Z,4.31
2019-02-23T23:36:27.438Z,4.26
2019-02-23T23:38:57.964Z,4.29
2019-02-23T23:41:28.722Z,4.27
2019-02-23T23:43:59.209Z,4.27
2019-02-23T23:46:29.612Z,4.27
2019-02-23T23:49:00.255Z,4.24
2019-02-23T23:51:31.011Z,4.24
2019-02-23T23:54:01.529Z,4.19
2019-02-23T23:56:31.861Z,4.19
2019-02-23T23:59:02.323Z,4.18
